Time;durP1;ratioP1;P1;durP2;ratioP2;P2;SDS_P1;SDS_P2;PMS_P1;PMS_P2;Temp;Humidity;BMP_temperature;BMP_pressure;BME280_temperature;BME280_humidity;BME280_pressure;Samples;Min_cycle;Max_cycle;Signal;HPM_P1;HPM_P2
2022/11/20 00:00:26;;;;;;;4.30;3.90;;;;;;;10.12;58.47;96944.63;5023098;28;20274;-72
2022/11/20 00:02:51;;;;;;;5.03;4.53;;;;;;;9.97;58.99;96950.41;5023143;28;20299;-71
2022/11/20 00:05:16;;;;;;;6.33;3.90;;;;;;;10.00;59.73;96946.69;5022052;28;20324;-71
2022/11/20 00:07:42;;;;;;;4.73;4.20;;;;;;;10.09;59.34;96944.91;5022917;28;20595;-71
2022/11/20 00:10:08;;;;;;;4.00;3.60;;;;;;;10.14;59.15;96951.34;5029389;28;20771;-71
2022/11/20 00:12:33;;;;;;;5.17;4.20;;;;;;;10.06;58.51;96946.06;5022775;28;20179;-71
2022/11/20 00:14:59;;;;;;;4.30;3.90;;;;;;;10.09;58.67;96947.53;5028363;28;20184;-71
2022/11/20 00:17:24;;;;;;;5.37;4.60;;;;;;;10.14;58.99;96945.28;5019356;28;20208;-71
2022/11/20 00:19:49;;;;;;;4.80;4.40;;;;;;;10.17;58.90;96947.59;5031185;28;20268;-72
2022/11/20 00:22:15;;;;;;;5.00;3.57;;;;;;;10.18;58.83;96949.25;5030013;28;20746;-72
2022/11/20 00:24:40;;;;;;;4.30;3.70;;;;;;;10.14;58.88;96947.91;5033546;28;20183;-71
2022/11/20 00:27:06;;;;;;;5.50;3.90;;;;;;;10.12;57.93;96947.25;5028985;28;20263;-70
2022/11/20 00:29:31;;;;;;;9.13;4.70;;;;;;;10.11;58.80;96950.84;5019831;28;20581;-71
2022/11/20 00:31:57;;;;;;;4.63;3.77;;;;;;;10.07;58.57;96949.53;5008553;28;20186;-71
2022/11/20 00:34:22;;;;;;;4.10;3.73;;;;;;;10.04;58.39;96947.19;5029652;28;20188;-71
2022/11/20 00:36:47;;;;;;;6.37;4.00;;;;;;;10.06;58.96;96943.44;5024579;28;20317;-71
2022/11/20 00:39:13;;;;;;;5.70;3.80;;;;;;;9.97;58.55;96952.25;5010694;28;20196;-71
2022/11/20 00:41:38;;;;;;;5.00;3.70;;;;;;;9.98;59.03;96943.41;4999048;28;20588;-70
2022/11/20 00:44:04;;;;;;;4.07;3.40;;;;;;;9.94;59.02;96952.53;5012947;28;20202;-69
2022/11/20 00:46:29;;;;;;;4.40;3.60;;;;;;;9.92;59.47;96949.25;5013696;28;20797;-70
2022/11/20 00:48:55;;;;;;;4.83;3.67;;;;;;;9.84;59.01;96952.63;5033119;28;20641;-70
2022/11/20 00:51:23;;;;;;;4.30;3.90;;;;;;;9.76;58.88;96950.81;5032369;28;20219;-70
2022/11/20 00:53:49;;;;;;;5.63;3.60;;;;;;;9.91;59.27;96953.69;5032763;28;20442;-69
2022/11/20 00:56:16;;;;;;;5.43;3.67;;;;;;;9.91;59.13;96958.06;5032490;28;20423;-71
2022/11/20 00:58:44;;;;;;;5.10;3.50;;;;;;;9.81;59.58;96953.78;5032521;28;20208;-72
2022/11/20 01:01:24;;;;;;;4.30;3.70;;;;;;;9.97;59.15;96954.84;5031245;28;20430;-70
2022/11/20 01:03:51;;;;;;;4.60;3.63;;;;;;;9.90;58.89;96954.66;5026050;28;20602;-71
2022/11/20 01:06:19;;;;;;;5.37;4.10;;;;;;;9.93;58.84;96958.75;5031245;28;20458;-70
2022/11/20 01:08:45;;;;;;;3.87;3.40;;;;;;;9.94;59.17;96957.78;5028025;28;20458;-72
2022/11/20 01:11:12;;;;;;;3.97;3.53;;;;;;;9.91;58.75;96961.53;5031837;28;20510;-72
2022/11/20 01:13:38;;;;;;;3.70;3.40;;;;;;;9.58;59.24;96960.47;5031780;28;20208;-71
2022/11/20 01:16:08;;;;;;;3.80;3.40;;;;;;;9.62;59.74;96960.00;5030950;28;20427;-70
2022/11/20 01:18:35;;;;;;;5.00;3.20;;;;;;;9.61;59.71;96966.22;5029985;28;20446;-70
2022/11/20 01:21:05;;;;;;;4.40;3.60;;;;;;;9.48;59.48;96974.47;5028527;28;20513;-70
2022/11/20 01:23:33;;;;;;;4.50;3.30;;;;;;;9.16;59.99;96970.56;5030812;28;20907;-70
2022/11/20 01:26:03;;;;;;;4.43;3.20;;;;;;;9.32;59.35;96974.31;5032172;28;20509;-69
2022/11/20 01:28:29;;;;;;;5.53;3.70;;;;;;;9.21;59.96;96977.97;5032072;28;20979;-70
2022/11/20 01:30:54;;;;;;;3.97;3.60;;;;;;;9.10;60.24;96981.66;5031433;28;20426;-72
2022/11/20 01:33:19;;;;;;;5.40;3.40;;;;;;;9.25;59.51;96979.31;5031797;28;20277;-70
2022/11/20 01:35:45;;;;;;;3.90;3.20;;;;;;;9.25;59.58;96974.09;5028396;28;20560;-70
2022/11/20 01:38:10;;;;;;;3.67;3.37;;;;;;;9.25;60.09;96981.94;5027029;28;20290;-70
2022/11/20 01:40:36;;;;;;;5.93;3.73;;;;;;;9.23;59.76;96976.03;5031811;28;20279;-72
2022/11/20 01:43:22;;;;;;;3.97;3.23;;;;;;;9.20;59.84;96976.31;5028897;28;20674;-70
2022/11/20 01:46:16;;;;;;;6.37;3.37;;;;;;;9.14;59.38;96966.47;5026896;28;20227;-70
2022/11/20 01:48:41;;;;;;;4.03;3.33;;;;;;;9.03;59.42;96970.97;5030341;28;20949;-70
2022/11/20 01:51:15;;;;;;;4.10;3.43;;;;;;;9.05;59.63;96969.03;5031569;28;20513;-69
2022/11/20 01:53:40;;;;;;;3.93;3.37;;;;;;;9.11;59.49;96969.38;5027220;28;20233;-70
2022/11/20 01:56:10;;;;;;;4.83;3.30;;;;;;;9.04;58.81;96970.00;5028116;28;20552;-69
2022/11/20 01:58:39;;;;;;;5.67;3.30;;;;;;;9.24;59.31;96966.41;5030017;28;20281;-70
2022/11/20 02:01:04;;;;;;;3.73;3.27;;;;;;;9.32;58.87;96969.94;5027384;28;20422;-70
2022/11/20 02:03:30;;;;;;;4.47;3.43;;;;;;;9.37;58.98;96972.91;5025081;28;20530;-70
2022/11/20 02:06:03;;;;;;;4.50;3.20;;;;;;;9.41;58.94;96975.22;5031302;28;20188;-70
2022/11/20 02:08:29;;;;;;;4.20;3.47;;;;;;;9.46;58.21;96975.56;5031089;28;20211;-70
2022/11/20 02:10:54;;;;;;;3.40;3.10;;;;;;;9.50;58.84;96976.91;5029935;28;20472;-71
2022/11/20 02:16:10;;;;;;;4.73;3.60;;;;;;;9.44;58.70;96982.78;5030994;28;20187;-68
2022/11/20 02:18:37;;;;;;;3.63;3.30;;;;;;;9.48;58.98;96976.25;5029646;28;20435;-70
2022/11/20 02:21:12;;;;;;;4.70;3.70;;;;;;;9.49;58.62;96976.13;5046832;28;20987;-70
2022/11/20 02:24:00;;;;;;;4.03;3.63;;;;;;;9.52;58.59;96975.78;5017242;28;20515;-70
2022/11/20 02:26:28;;;;;;;4.17;3.53;;;;;;;9.51;58.14;96978.56;5012958;28;20433;-70
2022/11/20 02:28:54;;;;;;;3.47;3.17;;;;;;;9.51;58.84;96975.94;5029812;28;20442;-69
2022/11/20 02:31:19;;;;;;;3.80;3.10;;;;;;;9.50;59.27;96972.53;5030613;28;20469;-69
2022/11/20 02:33:45;;;;;;;4.90;3.57;;;;;;;9.55;58.84;96979.09;5029487;28;20478;-69
2022/11/20 02:36:14;;;;;;;3.67;3.20;;;;;;;9.47;58.66;96972.00;5038644;28;20188;-71
2022/11/20 02:38:40;;;;;;;3.07;2.77;;;;;;;9.37;58.76;96972.91;5026845;28;20207;-70
2022/11/20 02:41:05;;;;;;;7.03;3.13;;;;;;;9.42;59.21;96971.63;5009679;28;20454;-69
2022/11/20 02:43:31;;;;;;;4.53;3.20;;;;;;;9.41;58.85;96977.84;5030412;28;20215;-69
2022/11/20 02:45:56;;;;;;;3.20;2.93;;;;;;;9.47;59.03;96982.44;5030624;28;20195;-69
2022/11/20 02:48:21;;;;;;;3.70;2.93;;;;;;;9.53;58.68;96971.41;5030129;28;20210;-70
2022/11/20 02:50:47;;;;;;;4.67;3.23;;;;;;;9.46;58.65;96970.34;5030585;28;20183;-71
2022/11/20 02:53:12;;;;;;;7.80;3.37;;;;;;;9.30;58.49;96974.47;5029012;28;20555;-70
2022/11/20 02:55:38;;;;;;;4.80;3.53;;;;;;;9.44;58.13;96972.31;5030360;28;20188;-71
2022/11/20 02:58:03;;;;;;;4.80;3.30;;;;;;;9.27;59.58;96969.53;5030092;28;20200;-70
2022/11/20 03:00:29;;;;;;;4.27;3.10;;;;;;;9.39;58.87;96977.97;5004943;28;20202;-70
2022/11/20 03:02:54;;;;;;;3.53;3.23;;;;;;;9.41;58.75;96980.44;5037512;28;20781;-71
2022/11/20 03:05:20;;;;;;;3.60;3.30;;;;;;;9.42;58.46;96975.06;5030309;28;20190;-69
2022/11/20 03:07:45;;;;;;;15.27;3.63;;;;;;;9.51;58.91;96975.94;5031858;28;20278;-69
2022/11/20 03:10:11;;;;;;;3.50;3.20;;;;;;;9.41;59.20;96985.69;5029990;28;20195;-70
2022/11/20 03:12:36;;;;;;;3.77;3.40;;;;;;;9.19;59.90;96980.75;5030532;28;20184;-70
2022/11/20 03:15:02;;;;;;;7.03;3.77;;;;;;;9.40;59.91;96984.03;5037937;28;20790;-68
2022/11/20 03:17:29;;;;;;;4.60;3.50;;;;;;;9.19;59.73;96974.72;5029814;28;20180;-70
2022/11/20 03:19:54;;;;;;;4.20;3.80;;;;;;;9.29;59.87;96974.63;5038456;28;20434;-71
2022/11/20 03:22:20;;;;;;;5.30;3.60;;;;;;;9.24;60.44;96976.88;5029722;28;20508;-70
2022/11/20 03:24:45;;;;;;;4.30;3.80;;;;;;;9.27;60.05;96971.31;5030094;28;20840;-70
2022/11/20 03:27:11;;;;;;;5.07;3.93;;;;;;;9.38;59.96;96974.53;5027622;28;20647;-70
2022/11/20 03:29:36;;;;;;;5.73;4.33;;;;;;;9.44;59.52;96967.09;5030274;28;20677;-71
2022/11/20 03:32:02;;;;;;;5.83;4.20;;;;;;;9.47;59.74;96966.75;5021915;28;20180;-70
2022/11/20 03:34:28;;;;;;;4.40;3.40;;;;;;;9.47;59.63;96961.53;5028530;28;20674;-71
2022/11/20 03:36:53;;;;;;;4.77;4.00;;;;;;;9.41;59.64;96959.53;5033012;28;20193;-70
2022/11/20 03:39:18;;;;;;;4.30;3.90;;;;;;;9.41;60.10;96956.91;5028365;28;20243;-71
2022/11/20 03:41:44;;;;;;;4.47;4.03;;;;;;;9.26;60.33;96954.00;5035453;28;20271;-70
2022/11/20 03:44:11;;;;;;;5.17;3.70;;;;;;;9.25;60.25;96958.41;5040562;28;20188;-71
2022/11/20 03:46:37;;;;;;;8.87;3.90;;;;;;;9.21;59.68;96955.28;5029407;28;20605;-70
2022/11/20 03:49:02;;;;;;;8.43;4.07;;;;;;;9.27;59.97;96959.09;5032391;28;20476;-70
2022/11/20 03:51:32;;;;;;;4.00;3.60;;;;;;;9.23;59.35;96965.56;5028622;28;20187;-71
2022/11/20 03:54:00;;;;;;;4.80;4.30;;;;;;;9.10;60.04;96959.91;5031189;28;20192;-70
2022/11/20 03:56:28;;;;;;;6.27;4.87;;;;;;;9.12;60.32;96960.56;5031803;28;20501;-69
2022/11/20 03:58:54;;;;;;;4.83;4.07;;;;;;;9.12;60.21;96955.34;5033798;28;20931;-69
2022/11/20 04:01:22;;;;;;;5.83;4.20;;;;;;;8.99;60.03;96959.16;5033334;28;20425;-71
2022/11/20 04:03:48;;;;;;;4.30;3.90;;;;;;;8.89;60.30;96958.41;5033725;28;20200;-69
2022/11/20 04:06:19;;;;;;;5.73;4.23;;;;;;;8.64;60.50;96958.13;5033068;28;20476;-68
2022/11/20 04:08:45;;;;;;;7.83;4.47;;;;;;;8.88;60.86;96951.53;5013162;28;20208;-71
2022/11/20 04:11:16;;;;;;;8.37;4.90;;;;;;;8.83;59.98;96954.56;5033045;28;20509;-70
2022/11/20 04:13:43;;;;;;;5.60;4.07;;;;;;;8.90;60.58;96949.59;5036947;28;20274;-70
2022/11/20 04:16:09;;;;;;;7.67;4.13;;;;;;;8.94;59.88;96953.56;5017994;28;20438;-70
2022/11/20 04:18:35;;;;;;;4.20;3.80;;;;;;;9.02;60.03;96958.03;5037245;28;20437;-70
2022/11/20 04:21:01;;;;;;;6.67;4.50;;;;;;;8.91;60.28;96953.84;5019293;28;20458;-69
2022/11/20 04:23:27;;;;;;;5.10;3.73;;;;;;;8.82;60.32;96946.91;5031516;28;20490;-70
2022/11/20 04:25:52;;;;;;;6.17;4.27;;;;;;;8.92;60.56;96952.88;5031909;28;20188;-70
2022/11/20 04:28:18;;;;;;;5.50;4.50;;;;;;;8.93;59.76;96951.06;5031295;28;20435;-70
2022/11/20 04:30:43;;;;;;;6.00;4.37;;;;;;;8.90;59.41;96955.63;5033310;28;20179;-70
2022/11/20 04:33:09;;;;;;;5.63;4.03;;;;;;;8.93;60.23;96945.84;5032584;28;20196;-70
2022/11/20 04:35:35;;;;;;;5.33;4.50;;;;;;;8.83;59.68;96951.97;5032600;28;20666;-70
2022/11/20 04:38:01;;;;;;;5.53;4.00;;;;;;;8.82;60.45;96946.91;5028881;28;20239;-70
2022/11/20 04:40:27;;;;;;;4.80;4.07;;;;;;;8.73;60.70;96949.41;5031490;28;20469;-69
2022/11/20 04:42:53;;;;;;;4.70;4.13;;;;;;;8.76;60.69;96949.13;5037908;28;20233;-69
2022/11/20 04:45:19;;;;;;;4.40;3.77;;;;;;;8.75;60.41;96942.25;5031414;28;20921;-70
2022/11/20 04:47:44;;;;;;;4.90;3.93;;;;;;;8.79;60.92;96949.78;5031723;28;20461;-69
2022/11/20 04:50:10;;;;;;;4.03;3.60;;;;;;;8.82;60.32;96941.69;5030665;28;20180;-70
2022/11/20 04:52:35;;;;;;;7.07;4.07;;;;;;;8.88;60.46;96947.09;5024676;28;20597;-70
2022/11/20 04:55:01;;;;;;;5.67;3.70;;;;;;;8.85;60.43;96941.34;5040635;28;20694;-70
2022/11/20 04:57:26;;;;;;;4.73;4.27;;;;;;;8.84;60.46;96953.63;5025385;28;20552;-70
2022/11/20 04:59:52;;;;;;;5.73;4.33;;;;;;;8.88;60.56;96941.06;5038955;28;20213;-70
2022/11/20 05:02:17;;;;;;;8.10;5.20;;;;;;;8.93;61.19;96944.06;5047411;28;20230;-69
2022/11/20 05:04:43;;;;;;;5.07;3.90;;;;;;;8.95;60.84;96943.91;5026150;28;20234;-70
2022/11/20 05:07:08;;;;;;;3.67;3.30;;;;;;;8.95;60.16;96936.88;5035517;28;20187;-70
2022/11/20 05:09:33;;;;;;;5.60;3.80;;;;;;;8.94;60.50;96930.03;5043763;28;20282;-71
2022/11/20 05:11:59;;;;;;;3.87;3.50;;;;;;;8.97;60.30;96937.56;5039748;28;20179;-71
2022/11/20 05:14:24;;;;;;;8.13;4.00;;;;;;;9.05;60.73;96932.44;5038429;28;20258;-70
2022/11/20 05:16:50;;;;;;;4.40;4.00;;;;;;;9.02;60.52;96937.94;5028691;28;20187;-69
2022/11/20 05:19:15;;;;;;;4.80;3.70;;;;;;;9.13;60.66;96934.28;5041533;28;20634;-70
2022/11/20 05:21:41;;;;;;;5.63;3.73;;;;;;;9.14;60.30;96938.53;5039934;28;20286;-70
2022/11/20 05:24:06;;;;;;;5.60;3.77;;;;;;;9.14;60.78;96937.72;5032969;28;20281;-69
2022/11/20 05:26:32;;;;;;;4.43;3.80;;;;;;;9.19;60.50;96944.13;5035678;28;20180;-69
2022/11/20 05:28:57;;;;;;;4.50;3.80;;;;;;;9.16;60.01;96935.78;5039123;28;20214;-69
2022/11/20 05:31:24;;;;;;;4.57;3.67;;;;;;;9.24;60.49;96940.25;5040614;28;20301;-70
2022/11/20 05:33:49;;;;;;;3.90;3.60;;;;;;;9.18;60.24;96928.63;5044902;28;20252;-70
2022/11/20 05:36:15;;;;;;;4.00;3.60;;;;;;;9.26;60.31;96936.53;5023680;28;20433;-69
2022/11/20 05:38:42;;;;;;;3.47;3.17;;;;;;;9.17;60.21;96930.38;5039691;28;20207;-70
2022/11/20 05:41:08;;;;;;;3.80;3.50;;;;;;;9.23;60.90;96939.44;5039155;28;20277;-69
2022/11/20 05:43:35;;;;;;;4.10;3.57;;;;;;;9.29;60.83;96938.84;5038796;28;20459;-70
2022/11/20 05:46:01;;;;;;;4.57;3.90;;;;;;;9.40;60.67;96937.75;5043476;28;20520;-70
2022/11/20 05:48:26;;;;;;;3.43;3.13;;;;;;;9.47;60.16;96937.97;5014812;28;20940;-70
2022/11/20 05:50:52;;;;;;;5.43;4.03;;;;;;;9.53;60.12;96921.69;5042914;28;20426;-71
2022/11/20 05:53:18;;;;;;;4.00;3.60;;;;;;;9.49;59.62;96930.81;5041861;28;20322;-72
2022/11/20 05:55:43;;;;;;;3.83;3.23;;;;;;;9.50;60.12;96929.84;5035853;28;20295;-70
2022/11/20 05:58:09;;;;;;;3.40;3.10;;;;;;;9.56;59.64;96939.72;5032844;28;20264;-70
2022/11/20 06:00:35;;;;;;;5.43;3.20;;;;;;;9.59;59.66;96935.94;5042273;28;20635;-69
2022/11/20 06:03:00;;;;;;;3.33;2.90;;;;;;;9.40;59.54;96937.75;5042451;28;20215;-70
2022/11/20 06:05:26;;;;;;;2.97;2.70;;;;;;;9.46;59.52;96931.94;5024736;28;20434;-70
2022/11/20 06:07:51;;;;;;;2.80;2.53;;;;;;;9.46;59.27;96929.31;5027298;28;20699;-70
2022/11/20 06:10:17;;;;;;;2.70;2.50;;;;;;;9.40;59.43;96940.38;5021842;28;20615;-70
2022/11/20 06:12:42;;;;;;;3.40;3.10;;;;;;;9.43;59.39;96939.28;5031549;28;20175;-70
2022/11/20 06:15:08;;;;;;;6.50;4.07;;;;;;;9.33;59.57;96944.59;5019501;28;20333;-70
2022/11/20 06:17:34;;;;;;;5.70;3.77;;;;;;;9.32;59.62;96938.53;5042562;28;20194;-70
2022/11/20 06:19:59;;;;;;;4.83;4.33;;;;;;;9.45;59.70;96940.75;5027334;28;20444;-70
2022/11/20 06:22:25;;;;;;;4.33;3.30;;;;;;;9.16;59.91;96938.41;4992805;28;20204;-72
2022/11/20 06:24:50;;;;;;;4.50;3.57;;;;;;;9.33;59.59;96942.78;4999774;28;20180;-66
2022/11/20 06:27:16;;;;;;;4.53;3.60;;;;;;;9.37;59.20;96938.91;5032569;28;20191;-66
2022/11/20 06:29:42;;;;;;;3.67;3.10;;;;;;;9.37;59.75;96938.91;5032647;28;20191;-68
2022/11/20 06:32:07;;;;;;;3.10;2.80;;;;;;;9.42;59.78;96932.41;5034346;28;20208;-67
2022/11/20 06:34:33;;;;;;;3.30;3.00;;;;;;;9.16;59.86;96928.75;5036871;28;20570;-68
2022/11/20 06:36:58;;;;;;;3.83;3.40;;;;;;;9.04;59.88;96925.56;5019996;28;20564;-68
2022/11/20 06:39:23;;;;;;;3.27;2.97;;;;;;;9.15;59.55;96932.31;5039845;28;20207;-69
2022/11/20 06:41:49;;;;;;;3.47;2.90;;;;;;;9.13;60.21;96929.06;5025594;28;20195;-71
2022/11/20 06:44:14;;;;;;;4.80;3.40;;;;;;;9.14;60.25;96929.88;5036705;28;20273;-71
2022/11/20 06:46:40;;;;;;;3.30;2.80;;;;;;;9.04;60.03;96925.56;5043585;28;20224;-71
2022/11/20 06:49:05;;;;;;;3.87;3.20;;;;;;;9.19;59.70;96935.50;5031705;28;20769;-70
2022/11/20 06:51:31;;;;;;;4.90;3.63;;;;;;;9.23;59.69;96934.19;5033656;28;20179;-70
2022/11/20 06:53:56;;;;;;;4.07;3.10;;;;;;;9.01;60.25;96938.91;5017853;28;20187;-70
2022/11/20 06:56:22;;;;;;;3.60;3.27;;;;;;;9.06;59.91;96936.69;5032011;28;20271;-70
2022/11/20 06:58:47;;;;;;;6.40;4.33;;;;;;;9.02;60.48;96934.50;5020083;28;20282;-71
2022/11/20 07:01:14;;;;;;;3.53;3.03;;;;;;;9.07;60.26;96938.31;5022646;28;20678;-69
2022/11/20 07:03:40;;;;;;;4.50;2.90;;;;;;;9.17;60.32;96940.03;5028549;28;20258;-69
2022/11/20 07:06:05;;;;;;;3.47;3.17;;;;;;;9.07;60.18;96940.91;5025226;28;20553;-69
2022/11/20 07:08:31;;;;;;;6.63;3.10;;;;;;;9.17;59.88;96940.03;5020071;28;20294;-71
2022/11/20 07:10:58;;;;;;;3.47;3.17;;;;;;;9.10;59.92;96944.22;5011890;28;20650;-70
2022/11/20 07:13:24;;;;;;;4.93;3.20;;;;;;;9.17;59.79;96943.47;5028223;28;20719;-70
2022/11/20 07:15:49;;;;;;;3.40;3.07;;;;;;;9.17;59.93;96946.06;5028469;28;20564;-70
2022/11/20 07:18:15;;;;;;;3.93;2.87;;;;;;;9.11;60.17;96943.25;5025684;28;20574;-71
2022/11/20 07:20:40;;;;;;;3.40;3.10;;;;;;;9.17;60.23;96940.03;5028584;28;20270;-70
2022/11/20 07:23:05;;;;;;;5.17;2.80;;;;;;;9.17;59.68;96945.28;5022183;28;20224;-69
2022/11/20 07:25:31;;;;;;;3.80;3.30;;;;;;;9.21;59.91;96941.38;5022384;28;20183;-71
2022/11/20 07:27:58;;;;;;;4.40;3.00;;;;;;;9.08;60.86;96941.75;5016041;28;20722;-70
2022/11/20 07:30:24;;;;;;;3.00;2.67;;;;;;;9.02;60.41;96942.34;5026162;28;20263;-70
2022/11/20 07:32:53;;;;;;;3.60;3.30;;;;;;;9.11;60.68;96948.47;5028694;28;21008;-72
2022/11/20 07:35:19;;;;;;;5.83;2.73;;;;;;;9.31;60.35;96951.75;5028416;28;20180;-71
2022/11/20 07:37:45;;;;;;;3.73;3.33;;;;;;;9.35;60.21;96953.91;5028495;28;20960;-70
2022/11/20 07:40:12;;;;;;;4.20;2.63;;;;;;;9.43;59.74;96966.25;5013439;28;20426;-70
2022/11/20 07:42:37;;;;;;;3.27;2.80;;;;;;;9.49;59.68;96962.19;5025615;28;20475;-70
2022/11/20 07:45:03;;;;;;;2.90;2.70;;;;;;;9.60;59.78;96961.97;5028513;28;20482;-71
2022/11/20 07:47:28;;;;;;;3.10;2.50;;;;;;;9.59;59.12;96955.06;5029680;28;20241;-70
2022/11/20 07:49:54;;;;;;;2.60;2.40;;;;;;;9.60;58.90;96953.28;5024639;28;20191;-69
2022/11/20 07:52:19;;;;;;;5.10;3.03;;;;;;;9.74;59.31;96944.91;5033575;28;20762;-69
2022/11/20 07:54:45;;;;;;;6.53;2.90;;;;;;;9.78;58.88;96953.25;5034008;28;20187;-70
2022/11/20 07:57:10;;;;;;;3.40;2.13;;;;;;;9.91;58.60;96950.22;5015331;28;20214;-69
2022/11/20 07:59:36;;;;;;;2.53;2.30;;;;;;;9.99;58.69;96958.94;5033707;28;20203;-70
2022/11/20 08:02:01;;;;;;;2.40;2.20;;;;;;;9.94;58.59;96958.59;5030067;28;20192;-70
2022/11/20 08:04:26;;;;;;;2.73;2.40;;;;;;;9.94;58.99;96961.22;5033265;28;20265;-70
2022/11/20 08:06:52;;;;;;;3.10;2.90;;;;;;;9.75;59.33;96958.78;5029350;28;20318;-70
2022/11/20 08:09:17;;;;;;;3.23;2.47;;;;;;;9.92;58.52;96964.94;5027111;28;20204;-69
2022/11/20 08:14:27;;;;;;;2.80;2.60;;;;;;;9.81;59.05;96973.91;5031911;28;20666;-70
2022/11/20 08:16:53;;;;;;;2.80;2.50;;;;;;;9.82;59.14;96973.72;5026502;28;20422;-71
2022/11/20 08:19:18;;;;;;;3.80;2.40;;;;;;;9.89;59.11;96975.75;5028818;28;20218;-70
2022/11/20 08:21:44;;;;;;;8.57;2.37;;;;;;;9.89;59.14;96976.56;5026383;28;20271;-72
2022/11/20 08:24:10;;;;;;;3.63;2.47;;;;;;;9.78;59.11;96984.66;4996714;28;20343;-70
2022/11/20 08:26:36;;;;;;;2.43;2.10;;;;;;;9.90;59.33;96982.59;5022920;28;20562;-70
2022/11/20 08:29:02;;;;;;;2.33;2.13;;;;;;;9.95;58.88;96978.56;5031166;28;20211;-71
2022/11/20 08:31:28;;;;;;;3.17;2.63;;;;;;;9.96;59.23;96988.06;5023516;28;20422;-71
2022/11/20 08:33:54;;;;;;;2.83;2.63;;;;;;;9.91;59.24;96982.47;5020179;28;20214;-71
2022/11/20 08:36:20;;;;;;;2.30;2.13;;;;;;;9.96;59.37;96976.78;5031970;28;20428;-72
2022/11/20 08:38:53;;;;;;;3.80;2.30;;;;;;;9.94;59.55;96990.03;5030761;28;20281;-71
2022/11/20 08:41:26;;;;;;;2.37;2.07;;;;;;;10.02;59.17;96981.38;5031104;28;20426;-70
2022/11/20 08:44:06;;;;;;;2.43;2.23;;;;;;;9.90;59.38;96983.44;5026570;28;20562;-70
2022/11/20 08:46:35;;;;;;;2.30;2.10;;;;;;;9.90;59.90;96988.69;5023319;28;20423;-70
2022/11/20 08:49:00;;;;;;;5.20;2.37;;;;;;;10.13;59.41;96988.16;5024501;28;20513;-70
2022/11/20 08:51:26;;;;;;;2.73;2.30;;;;;;;10.29;59.45;96987.44;5036818;28;20431;-72
2022/11/20 08:53:51;;;;;;;2.27;2.07;;;;;;;10.14;59.74;96985.38;5041291;28;20186;-72
2022/11/20 08:56:17;;;;;;;3.00;1.80;;;;;;;10.02;59.65;96980.56;5031732;28;20274;-72
2022/11/20 08:58:43;;;;;;;5.70;2.23;;;;;;;10.22;59.30;96987.22;5031689;28;20208;-69
2022/11/20 09:01:08;;;;;;;1.87;1.70;;;;;;;10.45;59.30;96991.97;5017259;28;20423;-70
2022/11/20 09:03:34;;;;;;;2.33;2.13;;;;;;;10.48;58.94;96991.63;5032793;28;20206;-72
2022/11/20 09:06:01;;;;;;;2.50;2.30;;;;;;;10.03;59.33;96984.84;5031662;28;20275;-70
2022/11/20 09:08:27;;;;;;;2.80;2.43;;;;;;;10.40;58.83;96994.22;4997825;28;20300;-71
2022/11/20 09:10:53;;;;;;;2.60;2.30;;;;;;;10.45;59.07;96991.97;5036577;28;20854;-71
2022/11/20 09:13:20;;;;;;;2.40;2.20;;;;;;;10.53;58.76;96993.78;5037003;28;20497;-70
2022/11/20 09:15:45;;;;;;;1.97;1.77;;;;;;;10.49;59.19;97003.78;5032994;28;20594;-71
2022/11/20 09:18:11;;;;;;;1.80;1.70;;;;;;;10.18;59.56;97000.78;5033448;28;20985;-70
2022/11/20 09:20:36;;;;;;;3.23;1.90;;;;;;;10.25;59.62;97001.81;5030036;28;20567;-72
2022/11/20 09:23:02;;;;;;;2.80;1.90;;;;;;;10.42;59.20;97008.00;5028785;28;20211;-72
2022/11/20 09:25:27;;;;;;;2.70;1.80;;;;;;;10.42;59.16;97013.25;5028177;28;20258;-69
2022/11/20 09:27:58;;;;;;;1.67;1.53;;;;;;;10.28;59.66;97007.56;4988931;28;20275;-72
2022/11/20 09:30:25;;;;;;;2.53;2.03;;;;;;;10.41;59.48;97011.59;5027481;28;20187;-72
2022/11/20 09:32:50;;;;;;;2.17;1.60;;;;;;;10.48;59.39;97012.59;5016881;28;20812;-73
2022/11/20 09:35:16;;;;;;;1.83;1.63;;;;;;;10.43;59.37;97018.31;5023014;28;20435;-72
2022/11/20 09:37:41;;;;;;;3.77;2.00;;;;;;;10.42;59.49;97008.00;5029924;28;20214;-72
2022/11/20 09:40:19;;;;;;;1.67;1.57;;;;;;;10.13;59.86;97009.94;5023717;28;20211;-72
2022/11/20 09:42:55;;;;;;;4.20;1.60;;;;;;;10.22;59.91;97016.03;5035304;28;20210;-72
2022/11/20 09:45:37;;;;;;;1.93;1.33;;;;;;;10.15;60.17;97028.91;5029915;28;20799;-72
2022/11/20 09:48:09;;;;;;;2.13;1.80;;;;;;;10.05;59.85;97032.63;5031171;28;20477;-71
2022/11/20 09:50:51;;;;;;;2.90;1.30;;;;;;;9.88;60.09;97027.28;5011991;28;20431;-72
2022/11/20 09:53:22;;;;;;;2.70;1.60;;;;;;;9.89;60.61;97028.09;5031518;28;20476;-72
2022/11/20 09:55:48;;;;;;;2.03;1.60;;;;;;;9.98;60.36;97027.19;5031595;28;20447;-72
2022/11/20 09:58:43;;;;;;;2.27;1.60;;;;;;;9.99;60.50;97024.41;5027521;28;20513;-71
2022/11/20 10:01:16;;;;;;;2.27;1.67;;;;;;;10.18;60.12;97025.19;5031505;28;20438;-71
2022/11/20 10:03:50;;;;;;;2.30;1.57;;;;;;;10.17;60.36;97020.94;5019339;28;20485;-71
2022/11/20 10:06:17;;;;;;;2.50;1.80;;;;;;;10.15;60.78;97025.50;5032606;28;20431;-72
2022/11/20 10:08:53;;;;;;;3.43;1.60;;;;;;;10.08;60.89;97022.66;5008963;28;20941;-72
2022/11/20 10:11:33;;;;;;;1.80;1.30;;;;;;;10.26;60.58;97029.66;5017611;28;20439;-71
2022/11/20 10:14:32;;;;;;;3.07;1.50;;;;;;;10.11;60.95;97032.00;5025606;28;20433;-71
2022/11/20 10:17:08;;;;;;;3.23;1.67;;;;;;;10.00;61.70;97027.88;5026054;28;20452;-71
2022/11/20 10:20:20;;;;;;;2.13;1.70;;;;;;;10.11;61.64;97032.84;5023694;28;20845;-71
2022/11/20 10:23:23;;;;;;;1.90;1.50;;;;;;;10.23;61.40;97038.63;5021203;28;20458;-71
2022/11/20 10:26:00;;;;;;;1.20;1.10;;;;;;;10.18;61.58;97043.53;5021961;28;20957;-73
2022/11/20 10:28:48;;;;;;;1.63;1.53;;;;;;;10.19;61.92;97044.34;5013111;28;20442;-72
2022/11/20 10:31:44;;;;;;;1.43;1.33;;;;;;;10.09;62.35;97044.41;5024752;28;20517;-72
2022/11/20 10:34:18;;;;;;;1.60;1.50;;;;;;;10.24;62.25;97042.91;5017696;28;20471;-71
2022/11/20 10:36:47;;;;;;;2.00;1.70;;;;;;;10.30;62.29;97034.44;5017113;28;20436;-72
2022/11/20 10:39:37;;;;;;;1.90;1.37;;;;;;;10.23;62.34;97030.78;5024893;28;20446;-71
2022/11/20 10:42:08;;;;;;;2.90;1.50;;;;;;;9.96;63.31;97035.19;5006878;28;20923;-72
2022/11/20 10:47:21;;;;;;;2.23;1.60;;;;;;;10.25;62.94;97028.81;5029299;28;20772;-71
2022/11/20 10:49:53;;;;;;;3.03;1.90;;;;;;;10.30;62.94;97021.34;5023255;28;20882;-71
2022/11/20 10:53:00;;;;;;;3.57;1.90;;;;;;;10.38;63.36;97027.63;5021355;28;20430;-72
2022/11/20 10:55:33;;;;;;;1.50;1.40;;;;;;;10.42;62.79;97029.78;5021029;28;20521;-71
2022/11/20 10:58:14;;;;;;;1.83;1.70;;;;;;;10.49;62.82;97026.53;5008676;28;20455;-71
2022/11/20 11:00:40;;;;;;;1.93;1.40;;;;;;;10.43;62.62;97023.56;5018671;28;20493;-71
2022/11/20 11:03:21;;;;;;;1.63;1.53;;;;;;;10.48;62.73;97017.03;5020241;28;20463;-71
2022/11/20 11:05:51;;;;;;;1.87;1.67;;;;;;;10.48;62.68;97017.84;5025898;28;20194;-72
2022/11/20 11:08:19;;;;;;;1.93;1.83;;;;;;;10.53;62.96;97018.22;5023260;28;20463;-71
2022/11/20 11:10:55;;;;;;;2.53;1.50;;;;;;;10.49;62.79;97016.88;5027479;28;20985;-72
2022/11/20 11:13:24;;;;;;;4.20;1.67;;;;;;;10.50;62.63;97017.72;5022914;28;20431;-71
2022/11/20 11:15:50;;;;;;;1.93;1.60;;;;;;;10.55;62.60;97007.56;5032134;28;20430;-72
2022/11/20 11:18:27;;;;;;;2.00;1.80;;;;;;;10.61;62.66;97009.56;5018491;28;20494;-72
2022/11/20 11:20:53;;;;;;;3.30;1.70;;;;;;;10.67;61.75;97005.50;5030162;28;20183;-72
2022/11/20 11:23:36;;;;;;;1.97;1.77;;;;;;;10.83;62.18;97002.94;5023454;28;20490;-71
2022/11/20 11:26:05;;;;;;;2.30;2.10;;;;;;;11.05;62.44;96992.84;5024736;28;20886;-72
2022/11/20 11:28:31;;;;;;;2.40;2.20;;;;;;;11.34;61.79;96988.97;5021663;28;20520;-70
2022/11/20 11:30:57;;;;;;;2.33;1.93;;;;;;;11.91;61.74;96971.53;5026708;28;20449;-71
2022/11/20 11:33:23;;;;;;;2.33;2.13;;;;;;;12.38;59.25;96977.88;5035048;28;20917;-71
2022/11/20 11:35:57;;;;;;;2.10;1.90;;;;;;;12.78;57.76;96975.25;5028931;28;20241;-72
2022/11/20 11:38:28;;;;;;;1.80;1.70;;;;;;;13.20;55.04;96971.41;5008151;28;20461;-72
2022/11/20 11:40:54;;;;;;;2.73;1.50;;;;;;;13.46;53.50;96967.63;5029550;28;20475;-72
2022/11/20 11:46:20;;;;;;;2.93;1.57;;;;;;;14.15;51.23;96957.97;5008819;28;20435;-72
2022/11/20 11:49:14;;;;;;;5.87;1.83;;;;;;;14.27;49.60;96954.69;5018599;28;20443;-71
2022/11/20 11:51:58;;;;;;;2.30;1.53;;;;;;;14.69;49.89;96944.50;5017306;28;20922;-72
2022/11/20 11:54:26;;;;;;;3.93;1.60;;;;;;;14.96;49.04;96941.34;5029518;28;20407;-71